Time;durP1;ratioP1;P1;durP2;ratioP2;P2;SDS_P1;SDS_P2;PMS_P1;PMS_P2;Temp;Humidity;BMP_temperature;BMP_pressure;BME280_temperature;BME280_humidity;BME280_pressure;Samples;Min_cycle;Max_cycle;Signal;HPM_P1;HPM_P2
2022/12/08 00:00:48;;;;;;;49.72;28.15;;;;;;;-0.36;100.00;152457.38;5046369;28;20051;-74
2022/12/08 00:03:14;;;;;;;53.05;29.52;;;;;;;-0.34;100.00;152462.44;5047987;28;20120;-74
2022/12/08 00:11:16;;;;;;;50.85;25.95;;;;;;;-0.39;100.00;152451.00;5023324;28;20380;-75
2022/12/08 00:13:42;;;;;;;47.05;25.00;;;;;;;-0.42;100.00;152443.34;5031185;28;20039;-75
2022/12/08 00:16:08;;;;;;;46.67;25.80;;;;;;;-0.41;100.00;152447.19;5021463;28;20048;-75
2022/12/08 00:18:33;;;;;;;49.38;26.85;;;;;;;-0.43;100.00;152442.09;5040864;28;20043;-75
2022/12/08 00:20:59;;;;;;;55.55;30.27;;;;;;;-0.37;100.00;152456.09;5052121;28;20033;-75
2022/12/08 00:23:25;;;;;;;53.13;26.90;;;;;;;-0.25;100.00;152485.38;5066608;28;20033;-75
2022/12/08 00:25:50;;;;;;;53.72;29.65;;;;;;;-0.28;100.00;152479.03;5050434;28;20221;-76
2022/12/08 00:28:17;;;;;;;59.63;29.30;;;;;;;-0.30;100.00;152472.63;5042424;28;20040;-76
2022/12/08 00:30:43;;;;;;;52.63;31.20;;;;;;;-0.31;100.00;152471.38;5056356;28;20051;-76
2022/12/08 00:33:15;;;;;;;54.05;31.92;;;;;;;-0.29;100.00;152475.19;5030671;28;20036;-76
2022/12/08 00:35:41;;;;;;;54.05;26.92;;;;;;;-0.29;100.00;152475.19;5031174;28;20029;-75
2022/12/08 00:38:07;;;;;;;47.33;26.67;;;;;;;-0.31;100.00;152471.38;5038386;28;20044;-76
2022/12/08 00:40:33;;;;;;;53.55;29.20;;;;;;;-0.23;100.00;152491.78;5020280;28;20033;-76
2022/12/08 00:42:59;;;;;;;51.17;30.25;;;;;;;-0.13;100.00;152514.66;5032348;28;20036;-75
2022/12/08 00:45:25;;;;;;;53.78;30.25;;;;;;;-0.15;100.00;152509.56;5023808;28;20726;-75
2022/12/08 00:47:51;;;;;;;45.33;25.10;;;;;;;-0.09;100.00;152524.88;5032848;28;20044;-76
2022/12/08 00:50:18;;;;;;;50.70;28.98;;;;;;;-0.01;100.00;152546.50;5037894;28;20037;-76
2022/12/08 00:52:44;;;;;;;46.63;28.23;;;;;;;0.06;100.00;152561.78;5050199;28;20033;-76
2022/12/08 00:55:10;;;;;;;40.53;27.08;;;;;;;0.16;100.00;152587.28;5039980;28;20124;-76
2022/12/08 00:57:37;;;;;;;45.08;27.92;;;;;;;0.06;100.00;152561.78;5035427;28;20529;-76
2022/12/08 01:00:03;;;;;;;39.47;25.58;;;;;;;0.21;100.00;152598.72;5040122;28;20047;-76
2022/12/08 01:02:32;;;;;;;36.65;24.20;;;;;;;0.29;100.00;152619.13;5046380;28;20035;-76
2022/12/08 01:04:57;;;;;;;40.92;25.02;;;;;;;0.22;100.00;152601.28;5041288;28;20045;-76
2022/12/08 01:07:23;;;;;;;38.63;26.48;;;;;;;0.29;100.00;152619.13;5050158;28;20040;-76
2022/12/08 01:09:49;;;;;;;39.95;25.30;;;;;;;0.24;100.00;152607.63;5023988;28;20548;-76
2022/12/08 01:12:15;;;;;;;39.50;24.10;;;;;;;0.14;100.00;152583.44;5026496;28;20043;-73
2022/12/08 01:14:41;;;;;;;35.13;23.13;;;;;;;0.37;100.00;152639.50;5013483;28;20065;-74
2022/12/08 01:17:07;;;;;;;33.33;22.48;;;;;;;0.55;100.00;152684.09;5039298;28;20477;-77
2022/12/08 01:19:33;;;;;;;29.00;20.52;;;;;;;0.48;100.00;152666.25;5054082;28;20032;-76
2022/12/08 01:21:59;;;;;;;30.65;21.38;;;;;;;0.44;100.00;152657.34;5049563;28;20040;-76
2022/12/08 01:24:25;;;;;;;32.42;22.65;;;;;;;0.45;100.00;152659.84;5035274;28;20048;-76
2022/12/08 01:26:50;;;;;;;32.95;21.77;;;;;;;0.39;100.00;152644.59;5025998;28;20033;-76
2022/12/08 01:29:16;;;;;;;34.70;20.35;;;;;;;0.47;100.00;152663.69;5033804;28;20056;-76
2022/12/08 01:31:42;;;;;;;30.17;22.35;;;;;;;0.47;100.00;152665.00;5033427;28;20513;-76
2022/12/08 01:34:10;;;;;;;30.92;22.10;;;;;;;0.52;100.00;152676.44;5059838;28;20040;-76
2022/12/08 01:36:37;;;;;;;31.10;22.92;;;;;;;0.65;100.00;152708.31;5041360;28;20541;-76
2022/12/08 01:39:05;;;;;;;30.40;21.98;;;;;;;0.61;100.00;152699.38;5066239;28;20025;-77
2022/12/08 01:41:33;;;;;;;30.40;22.70;;;;;;;0.60;100.00;152695.53;5022902;28;20044;-77
2022/12/08 01:44:03;;;;;;;30.75;22.00;;;;;;;0.52;100.00;152677.69;5057964;28;20071;-76
2022/12/08 01:46:31;;;;;;;32.60;22.75;;;;;;;0.56;100.00;152687.88;5034658;28;20751;-76
2022/12/08 01:49:00;;;;;;;32.25;22.02;;;;;;;0.40;100.00;152647.16;5036971;28;20490;-77
2022/12/08 01:51:26;;;;;;;29.95;22.13;;;;;;;0.42;100.00;152650.97;5033853;28;20401;-76
2022/12/08 01:53:52;;;;;;;31.42;22.88;;;;;;;0.62;100.00;152700.63;5038953;28;20128;-76
2022/12/08 01:56:35;;;;;;;33.78;23.65;;;;;;;0.67;100.00;152714.66;5033761;28;20039;-75
2022/12/08 01:59:02;;;;;;;32.53;23.05;;;;;;;0.74;100.00;152731.25;5041414;28;20044;-76
2022/12/08 02:01:28;;;;;;;32.53;19.88;;;;;;;0.69;100.00;152719.75;5056003;28;20033;-76
2022/12/08 02:04:00;;;;;;;25.92;20.33;;;;;;;0.66;100.00;152710.81;5046336;28;20033;-77
2022/12/08 02:06:29;;;;;;;28.98;20.50;;;;;;;0.53;100.00;152679.00;5037041;28;20037;-76
2022/12/08 02:08:57;;;;;;;26.02;17.40;;;;;;;0.52;100.00;152677.69;5017333;28;20033;-74
2022/12/08 02:11:23;;;;;;;27.17;19.00;;;;;;;0.51;100.00;152675.19;5026176;28;20037;-76
2022/12/08 02:13:51;;;;;;;24.85;17.20;;;;;;;0.54;100.00;152682.78;5044286;28;20062;-74
2022/12/08 02:16:45;;;;;;;29.60;17.98;;;;;;;0.49;100.00;152670.09;5032807;28;20675;-76
2022/12/08 02:19:47;;;;;;;26.52;16.30;;;;;;;0.48;100.00;152666.25;5012231;28;20052;-76
2022/12/08 02:22:36;;;;;;;25.85;15.02;;;;;;;0.47;100.00;152663.69;5013189;28;20772;-76
2022/12/08 02:25:23;;;;;;;27.17;17.65;;;;;;;0.36;100.00;152636.97;5015712;28;20508;-77
2022/12/08 02:27:52;;;;;;;27.52;17.42;;;;;;;0.41;100.00;152648.41;5027739;28;20072;-76
2022/12/08 02:30:30;;;;;;;25.15;17.98;;;;;;;0.43;100.00;152654.75;5032297;28;20143;-76
2022/12/08 02:33:17;;;;;;;32.63;20.25;;;;;;;0.31;100.00;152625.47;5016120;28;20541;-76
2022/12/08 02:35:57;;;;;;;25.67;18.38;;;;;;;0.43;100.00;152653.50;5030467;28;20734;-76
2022/12/08 02:38:29;;;;;;;27.67;18.83;;;;;;;0.44;100.00;152656.06;5014004;28;20041;-76
2022/12/08 02:41:19;;;;;;;26.88;19.40;;;;;;;0.44;100.00;152656.06;5019531;28;20044;-76
2022/12/08 02:44:22;;;;;;;29.10;18.98;;;;;;;0.43;100.00;152654.75;5023154;28;20098;-76
2022/12/08 02:46:57;;;;;;;30.60;19.77;;;;;;;0.42;100.00;152652.25;5029490;28;20178;-77
2022/12/08 02:49:32;;;;;;;25.60;17.92;;;;;;;0.42;100.00;152652.25;5039364;28;20041;-76
2022/12/08 02:52:07;;;;;;;26.15;19.95;;;;;;;0.34;100.00;152631.81;5014900;28;20044;-74
2022/12/08 02:54:35;;;;;;;28.67;19.00;;;;;;;0.54;100.00;152681.53;5013762;28;20037;-77
2022/12/08 02:57:34;;;;;;;29.05;20.85;;;;;;;0.67;100.00;152713.41;5015442;28;20128;-76
2022/12/08 03:00:20;;;;;;;29.63;17.27;;;;;;;0.71;100.00;152723.56;5032631;28;20037;-76
2022/12/08 03:03:09;;;;;;;25.98;16.42;;;;;;;0.67;100.00;152713.41;5034049;28;20075;-76
2022/12/08 03:05:56;;;;;;;24.83;16.85;;;;;;;0.72;100.00;152726.16;5011188;28;20048;-77
2022/12/08 03:08:49;;;;;;;23.73;18.48;;;;;;;0.75;100.00;152735.06;5031342;28;20045;-77
2022/12/08 03:11:26;;;;;;;23.83;16.87;;;;;;;0.63;100.00;152704.47;5021881;28;20049;-76
2022/12/08 03:13:58;;;;;;;21.58;15.45;;;;;;;0.56;100.00;152686.63;5033375;28;20091;-77
2022/12/08 03:16:26;;;;;;;37.33;19.42;;;;;;;0.62;100.00;152701.91;5019355;28;20501;-77
2022/12/08 03:19:25;;;;;;;23.40;17.27;;;;;;;0.80;100.00;152745.25;5026084;28;20069;-76
2022/12/08 03:22:01;;;;;;;22.63;16.60;;;;;;;0.80;100.00;152745.25;5034441;28;20040;-77
2022/12/08 03:24:37;;;;;;;21.98;15.48;;;;;;;0.76;100.00;152736.34;5030154;28;20040;-76
2022/12/08 03:27:11;;;;;;;22.73;15.25;;;;;;;0.68;100.00;152715.91;5036234;28;20505;-76
2022/12/08 03:29:37;;;;;;;22.45;13.65;;;;;;;0.55;100.00;152685.38;5018963;28;20041;-76
2022/12/08 03:32:29;;;;;;;16.23;13.27;;;;;;;0.72;100.00;152726.16;5034919;28;20044;-76
2022/12/08 03:35:02;;;;;;;20.40;13.02;;;;;;;0.55;100.00;152684.09;5034385;28;20052;-77
2022/12/08 03:37:28;;;;;;;19.45;13.68;;;;;;;0.67;100.00;152713.41;5045949;28;21818;-77
2022/12/08 03:39:54;;;;;;;15.68;11.57;;;;;;;0.86;100.00;152760.53;5036552;28;20037;-77
2022/12/08 03:42:19;;;;;;;13.52;11.40;;;;;;;0.94;100.00;152780.91;5033214;28;20048;-77
2022/12/08 03:44:45;;;;;;;15.77;11.48;;;;;;;0.95;100.00;152784.75;5050043;28;20041;-76
2022/12/08 03:47:11;;;;;;;16.45;10.52;;;;;;;0.82;100.00;152751.63;5028737;28;20606;-77
2022/12/08 03:49:36;;;;;;;13.43;10.32;;;;;;;0.86;100.00;152760.53;5056989;28;20056;-76
2022/12/08 03:52:04;;;;;;;13.93;9.68;;;;;;;0.85;100.00;152759.28;5026147;28;20039;-77
2022/12/08 03:54:30;;;;;;;13.52;9.77;;;;;;;0.81;100.00;152749.09;5016635;28;20149;-76
2022/12/08 03:56:56;;;;;;;13.48;9.25;;;;;;;0.71;100.00;152724.84;5052707;28;20054;-77
2022/12/08 03:59:21;;;;;;;13.02;9.15;;;;;;;0.71;100.00;152724.84;5048769;28;20035;-76
2022/12/08 04:01:47;;;;;;;11.60;8.90;;;;;;;0.66;100.00;152710.81;5050990;28;20632;-77
2022/12/08 04:04:12;;;;;;;12.20;8.63;;;;;;;0.62;100.00;152701.91;5043525;28;20095;-77
2022/12/08 04:06:38;;;;;;;11.85;8.93;;;;;;;0.61;100.00;152699.38;5040810;28;20462;-77
2022/12/08 04:09:04;;;;;;;9.98;7.82;;;;;;;0.71;100.00;152724.84;5056894;28;20522;-77
2022/12/08 04:11:29;;;;;;;10.88;7.38;;;;;;;0.81;100.00;152747.78;5042238;28;20120;-77
2022/12/08 04:13:55;;;;;;;8.82;7.40;;;;;;;0.73;100.00;152728.66;5045253;28;20116;-77
2022/12/08 04:16:23;;;;;;;10.70;6.93;;;;;;;0.71;100.00;152724.84;5044802;28;20390;-76
2022/12/08 04:18:49;;;;;;;9.40;6.07;;;;;;;0.83;100.00;152752.88;5027657;28;20067;-76
2022/12/08 04:21:15;;;;;;;6.50;5.85;;;;;;;0.86;100.00;152760.53;5011625;28;20041;-76
2022/12/08 04:23:41;;;;;;;8.93;5.90;;;;;;;0.78;100.00;152741.44;5039001;28;20127;-77
2022/12/08 04:26:07;;;;;;;6.63;5.13;;;;;;;0.80;100.00;152746.53;5042406;28;20571;-77
2022/12/08 04:28:33;;;;;;;9.23;5.65;;;;;;;0.86;100.00;152760.53;5038574;28;20037;-74
2022/12/08 04:30:59;;;;;;;7.32;5.40;;;;;;;0.86;100.00;152761.81;5029104;28;20421;-76
2022/12/08 04:33:25;;;;;;;7.40;5.30;;;;;;;0.84;100.00;152756.72;5038516;28;20045;-74
2022/12/08 04:35:50;;;;;;;6.45;5.18;;;;;;;0.87;100.00;152764.38;5049546;28;20543;-76
2022/12/08 04:38:16;;;;;;;8.30;5.70;;;;;;;0.80;100.00;152746.53;5048786;28;20037;-77
2022/12/08 04:40:42;;;;;;;7.28;5.90;;;;;;;0.80;100.00;152746.53;5051815;28;22147;-75
2022/12/08 04:43:08;;;;;;;6.50;5.60;;;;;;;0.75;100.00;152735.06;5045851;28;20068;-76
2022/12/08 04:45:34;;;;;;;7.60;5.28;;;;;;;0.80;100.00;152746.53;5035955;28;20047;-74
2022/12/08 04:48:00;;;;;;;6.30;5.30;;;;;;;0.81;100.00;152749.09;5042894;28;20040;-75
2022/12/08 04:50:26;;;;;;;8.68;5.07;;;;;;;0.82;100.00;152750.34;5043906;28;20516;-75
2022/12/08 04:52:52;;;;;;;6.13;5.53;;;;;;;0.77;100.00;152738.84;5040324;28;20729;-76
2022/12/08 04:55:18;;;;;;;10.90;5.50;;;;;;;0.72;100.00;152727.41;5034020;28;20494;-77
2022/12/08 04:57:44;;;;;;;7.15;5.78;;;;;;;0.82;100.00;152750.34;5041738;28;20143;-76
2022/12/08 05:00:11;;;;;;;5.93;4.80;;;;;;;0.76;100.00;152737.59;5048135;28;20036;-76
2022/12/08 05:02:36;;;;;;;6.13;5.28;;;;;;;0.77;100.00;152738.84;5028312;28;20089;-76
2022/12/08 05:05:03;;;;;;;8.95;6.38;;;;;;;0.68;100.00;152717.22;5045251;28;20405;-76
2022/12/08 05:07:29;;;;;;;9.73;7.00;;;;;;;0.60;100.00;152696.81;5039104;28;20048;-76
2022/12/08 05:09:54;;;;;;;10.43;6.70;;;;;;;0.64;100.00;152707.03;5054514;28;20033;-76
2022/12/08 05:12:20;;;;;;;7.03;5.40;;;;;;;0.64;100.00;152705.72;5047046;28;20099;-76
2022/12/08 05:14:47;;;;;;;6.10;4.68;;;;;;;0.67;100.00;152713.41;5046074;28;20565;-76
2022/12/08 05:17:14;;;;;;;8.07;4.90;;;;;;;0.71;100.00;152723.56;5045384;28;20041;-76
2022/12/08 05:19:39;;;;;;;5.93;4.47;;;;;;;0.66;100.00;152710.81;5030235;28;20128;-77
2022/12/08 05:22:05;;;;;;;6.57;4.75;;;;;;;0.52;100.00;152677.69;5046378;28;20123;-76
2022/12/08 05:24:31;;;;;;;7.57;5.20;;;;;;;0.49;100.00;152668.78;5046147;28;20036;-76
2022/12/08 05:26:56;;;;;;;5.80;4.78;;;;;;;0.66;100.00;152710.81;5022547;28;20041;-76
2022/12/08 05:29:22;;;;;;;7.72;5.20;;;;;;;0.54;100.00;152682.78;5046719;28;20043;-77
2022/12/08 05:31:48;;;;;;;5.75;5.07;;;;;;;0.64;100.00;152707.03;5012762;28;20037;-76
2022/12/08 05:34:13;;;;;;;5.88;5.05;;;;;;;0.60;100.00;152696.81;5032941;28;20041;-77
2022/12/08 05:36:39;;;;;;;5.93;5.25;;;;;;;0.42;100.00;152652.25;5030549;28;20681;-77
2022/12/08 05:39:05;;;;;;;5.60;4.97;;;;;;;0.30;100.00;152621.66;5023069;28;20140;-76
2022/12/08 05:41:31;;;;;;;9.25;5.68;;;;;;;0.25;100.00;152608.94;5048853;28;20090;-77
2022/12/08 05:43:56;;;;;;;7.57;5.10;;;;;;;0.22;100.00;152602.53;5052343;28;20123;-77
2022/12/08 05:46:22;;;;;;;5.85;5.25;;;;;;;0.18;100.00;152592.38;5051222;28;20040;-77
2022/12/08 05:48:48;;;;;;;4.97;4.47;;;;;;;0.19;100.00;152594.94;5056580;28;20028;-77
2022/12/08 05:51:20;;;;;;;4.88;4.38;;;;;;;0.48;100.00;152667.50;5020760;28;20036;-77
2022/12/08 05:53:47;;;;;;;5.00;4.15;;;;;;;0.61;100.00;152698.13;5034238;28;20409;-76
2022/12/08 05:56:13;;;;;;;4.30;3.90;;;;;;;0.51;100.00;152675.19;5032866;28;20780;-76
2022/12/08 05:58:38;;;;;;;6.20;4.25;;;;;;;0.54;100.00;152681.53;5027612;28;20246;-76
2022/12/08 06:01:04;;;;;;;6.93;4.18;;;;;;;0.60;100.00;152695.53;5050572;28;20064;-76
2022/12/08 06:03:30;;;;;;;4.15;3.17;;;;;;;0.67;100.00;152713.41;5039308;28;20025;-77
2022/12/08 06:05:55;;;;;;;3.20;2.90;;;;;;;0.69;100.00;152718.47;5035574;28;20521;-76
2022/12/08 06:08:21;;;;;;;3.72;3.33;;;;;;;0.42;100.00;152650.97;5046931;28;20412;-76
2022/12/08 06:10:47;;;;;;;4.82;3.95;;;;;;;0.31;100.00;152625.47;5052742;28;20037;-76
2022/12/08 06:13:13;;;;;;;9.82;4.97;;;;;;;0.23;100.00;152605.13;5047401;28;20036;-76
2022/12/08 06:15:40;;;;;;;4.85;4.38;;;;;;;0.14;100.00;152582.19;5057930;28;20036;-77
2022/12/08 06:18:06;;;;;;;5.35;4.55;;;;;;;0.11;100.00;152575.78;5050727;28;20040;-77
2022/12/08 06:20:33;;;;;;;4.63;4.13;;;;;;;0.25;100.00;152610.19;5045576;28;20025;-76
2022/12/08 06:22:59;;;;;;;5.63;5.00;;;;;;;0.24;100.00;152606.38;5029568;28;20103;-76
2022/12/08 06:25:25;;;;;;;4.38;3.97;;;;;;;0.25;100.00;152608.94;5014077;28;20454;-77
2022/12/08 06:27:51;;;;;;;4.50;4.07;;;;;;;0.27;100.00;152614.03;5040294;28;20520;-76
2022/12/08 06:30:17;;;;;;;5.57;4.70;;;;;;;0.28;100.00;152616.56;5040921;28;20044;-77
2022/12/08 06:32:43;;;;;;;5.78;5.28;;;;;;;0.31;100.00;152625.47;5058001;28;20028;-77
2022/12/08 06:35:09;;;;;;;5.75;5.25;;;;;;;0.24;100.00;152606.38;5031358;28;20032;-77
2022/12/08 06:37:35;;;;;;;7.03;6.15;;;;;;;0.34;100.00;152631.81;5037243;28;20025;-77
2022/12/08 06:40:00;;;;;;;9.55;7.13;;;;;;;0.24;100.00;152607.63;5041745;28;20040;-77
2022/12/08 06:42:45;;;;;;;7.00;6.28;;;;;;;0.27;100.00;152614.03;5040672;28;20453;-77
2022/12/08 06:45:14;;;;;;;8.43;7.53;;;;;;;0.34;100.00;152631.81;5043070;28;20045;-77
2022/12/08 06:47:40;;;;;;;8.85;7.75;;;;;;;0.39;100.00;152644.59;5045273;28;20448;-77
2022/12/08 06:50:07;;;;;;;8.50;7.63;;;;;;;0.32;100.00;152628.03;5036044;28;20048;-77
2022/12/08 06:52:33;;;;;;;8.30;7.32;;;;;;;0.32;100.00;152628.03;5057643;28;20057;-77
2022/12/08 06:54:58;;;;;;;12.93;6.93;;;;;;;0.31;100.00;152624.22;5041603;28;20044;-77
2022/12/08 06:57:24;;;;;;;7.85;7.05;;;;;;;0.31;100.00;152625.47;5048022;28;20041;-77
2022/12/08 06:59:50;;;;;;;7.70;7.00;;;;;;;0.40;100.00;152647.16;5049452;28;20071;-77
2022/12/08 07:02:16;;;;;;;10.68;7.00;;;;;;;0.52;100.00;152677.69;5060621;28;20123;-77
2022/12/08 07:04:42;;;;;;;8.52;7.03;;;;;;;0.32;100.00;152628.03;5039846;28;20060;-77
2022/12/08 07:07:08;;;;;;;8.50;7.70;;;;;;;0.23;100.00;152605.13;5033850;28;20133;-77
2022/12/08 07:09:33;;;;;;;8.23;7.30;;;;;;;0.25;100.00;152608.94;5045231;28;20518;-76
2022/12/08 07:11:59;;;;;;;10.90;7.70;;;;;;;0.31;100.00;152624.22;5033885;28;20131;-77
2022/12/08 07:14:25;;;;;;;9.13;7.72;;;;;;;0.56;100.00;152687.88;5046236;28;20032;-77
2022/12/08 07:16:51;;;;;;;9.30;8.27;;;;;;;0.56;100.00;152686.63;5030879;28;20036;-76
2022/12/08 07:19:17;;;;;;;9.93;7.80;;;;;;;0.51;100.00;152673.88;5060764;28;20916;-76
2022/12/08 07:21:42;;;;;;;10.05;8.48;;;;;;;0.61;100.00;152699.38;5064310;28;20032;-77
2022/12/08 07:24:08;;;;;;;10.25;7.85;;;;;;;0.58;100.00;152691.72;5028747;28;20059;-77
2022/12/08 07:26:34;;;;;;;12.35;7.88;;;;;;;0.61;100.00;152698.13;5056732;28;20550;-77
2022/12/08 07:29:00;;;;;;;10.75;8.20;;;;;;;0.59;100.00;152694.28;5034685;28;20048;-76
2022/12/08 07:31:27;;;;;;;11.13;8.35;;;;;;;0.60;100.00;152695.53;5031908;28;20115;-76
2022/12/08 07:33:53;;;;;;;13.23;10.20;;;;;;;0.53;100.00;152679.00;5024405;28;20044;-76
2022/12/08 07:36:20;;;;;;;11.13;9.07;;;;;;;0.69;100.00;152719.75;5028664;28;20033;-76
2022/12/08 07:38:46;;;;;;;13.10;10.35;;;;;;;0.67;100.00;152713.41;5041184;28;20032;-76
2022/12/08 07:41:14;;;;;;;11.98;9.23;;;;;;;0.65;100.00;152709.56;5031703;28;20119;-76
2022/12/08 07:43:40;;;;;;;11.20;8.68;;;;;;;0.61;100.00;152698.13;5035246;28;20123;-76
2022/12/08 07:46:06;;;;;;;15.02;10.07;;;;;;;0.57;100.00;152690.44;5044367;28;20098;-76
2022/12/08 07:48:31;;;;;;;14.27;10.00;;;;;;;0.51;100.00;152675.19;5045160;28;20037;-76
2022/12/08 07:51:02;;;;;;;13.93;11.70;;;;;;;0.49;100.00;152668.78;5054577;28;20037;-76
2022/12/08 07:53:28;;;;;;;14.90;10.98;;;;;;;0.59;100.00;152694.28;5061734;28;20071;-76
2022/12/08 07:55:54;;;;;;;13.10;10.90;;;;;;;0.70;100.00;152722.31;5030418;28;20024;-77
2022/12/08 07:58:20;;;;;;;11.85;9.85;;;;;;;0.63;100.00;152703.22;5050611;28;20136;-76
2022/12/08 08:00:45;;;;;;;12.80;10.07;;;;;;;0.59;100.00;152694.28;5037231;28;20119;-77
2022/12/08 08:03:11;;;;;;;13.25;10.70;;;;;;;0.74;100.00;152732.50;5001815;28;20052;-77
2022/12/08 08:05:37;;;;;;;15.88;10.00;;;;;;;0.65;100.00;152709.56;5025008;28;20024;-76
2022/12/08 08:08:03;;;;;;;12.15;10.52;;;;;;;0.67;100.00;152713.41;5045725;28;20044;-76
2022/12/08 08:10:29;;;;;;;15.07;9.77;;;;;;;0.72;100.00;152726.16;5051640;28;20036;-76
2022/12/08 08:12:57;;;;;;;11.70;10.25;;;;;;;0.67;100.00;152714.66;5045965;28;20142;-76
2022/12/08 08:15:23;;;;;;;13.70;11.10;;;;;;;0.68;100.00;152715.91;5025350;28;20029;-76
2022/12/08 08:17:50;;;;;;;14.15;11.10;;;;;;;0.66;100.00;152712.13;5063962;28;20043;-76
2022/12/08 08:20:17;;;;;;;17.40;11.40;;;;;;;0.71;100.00;152724.84;5047048;28;20040;-76
2022/12/08 08:22:44;;;;;;;14.02;10.50;;;;;;;0.78;100.00;152741.44;5046358;28;20213;-76
2022/12/08 08:25:10;;;;;;;14.02;10.30;;;;;;;0.76;100.00;152736.34;5041192;28;20033;-77
2022/12/08 08:27:36;;;;;;;12.50;10.05;;;;;;;0.86;100.00;152761.81;5055753;28;20063;-76
2022/12/08 08:30:02;;;;;;;12.40;10.20;;;;;;;0.83;100.00;152754.19;5059629;28;20039;-76
2022/12/08 08:32:32;;;;;;;16.98;10.40;;;;;;;0.80;100.00;152746.53;5028224;28;20041;-76
2022/12/08 08:34:58;;;;;;;14.60;10.15;;;;;;;0.86;100.00;152760.53;5042593;28;20032;-77
2022/12/08 08:37:23;;;;;;;12.57;8.80;;;;;;;0.87;100.00;152763.13;5042940;28;20049;-76
2022/12/08 08:39:49;;;;;;;11.38;9.43;;;;;;;0.83;100.00;152754.19;5020548;28;20039;-76
2022/12/08 08:42:15;;;;;;;12.73;9.55;;;;;;;0.82;100.00;152750.34;5057636;28;20877;-76
2022/12/08 08:44:40;;;;;;;11.70;8.95;;;;;;;0.86;100.00;152760.53;5048012;28;20173;-77
2022/12/08 08:47:06;;;;;;;12.75;9.38;;;;;;;0.85;100.00;152759.28;5038161;28;20648;-77
2022/12/08 08:49:34;;;;;;;11.88;9.32;;;;;;;0.64;100.00;152707.03;5048813;28;20067;-76
2022/12/08 08:51:59;;;;;;;10.68;9.25;;;;;;;0.68;100.00;152717.22;5061251;28;20103;-76
2022/12/08 08:54:28;;;;;;;14.52;10.75;;;;;;;0.70;100.00;152722.31;5029631;28;20120;-76
2022/12/08 08:56:53;;;;;;;18.77;12.85;;;;;;;0.86;100.00;152761.81;5025517;28;20037;-78
2022/12/08 08:59:19;;;;;;;16.52;12.10;;;;;;;0.74;100.00;152731.25;5052145;28;20047;-76
2022/12/08 09:01:45;;;;;;;19.05;13.30;;;;;;;0.74;100.00;152731.25;5056476;28;20059;-76
2022/12/08 09:04:10;;;;;;;18.48;13.05;;;;;;;0.83;100.00;152754.19;5042731;28;20029;-77
2022/12/08 09:06:36;;;;;;;22.52;13.40;;;;;;;0.81;100.00;152747.78;5058915;28;20055;-77
2022/12/08 09:09:02;;;;;;;15.13;12.05;;;;;;;0.89;100.00;152768.19;5059487;28;20054;-77
2022/12/08 09:11:28;;;;;;;13.75;11.18;;;;;;;1.08;100.00;152815.34;5051360;28;20041;-77
2022/12/08 09:13:54;;;;;;;13.13;10.63;;;;;;;0.97;100.00;152789.84;5027702;28;20115;-76
2022/12/08 09:16:20;;;;;;;13.32;10.27;;;;;;;0.88;100.00;152766.91;5051914;28;20048;-77
2022/12/08 09:18:48;;;;;;;12.15;10.00;;;;;;;0.89;100.00;152768.19;5047372;28;20032;-76
2022/12/08 09:21:19;;;;;;;12.63;9.70;;;;;;;0.92;100.00;152777.13;5041642;28;20052;-76
2022/12/08 09:23:44;;;;;;;10.18;8.40;;;;;;;1.01;100.00;152797.50;5022557;28;20486;-76
2022/12/08 09:26:10;;;;;;;12.45;8.40;;;;;;;1.00;100.00;152794.94;5059752;28;20044;-77
2022/12/08 09:28:37;;;;;;;10.35;8.73;;;;;;;0.82;100.00;152750.34;5012173;28;20230;-76
2022/12/08 09:31:03;;;;;;;10.73;7.93;;;;;;;0.87;100.00;152764.38;5044453;28;20025;-77
2022/12/08 09:33:28;;;;;;;12.57;8.18;;;;;;;0.81;100.00;152749.09;5041029;28;20041;-77
2022/12/08 09:35:54;;;;;;;9.52;8.25;;;;;;;0.90;100.00;152770.72;5049232;28;20056;-77
2022/12/08 09:38:20;;;;;;;12.60;7.82;;;;;;;0.97;100.00;152788.56;5059957;28;20588;-77
2022/12/08 09:40:51;;;;;;;8.93;6.78;;;;;;;0.83;100.00;152752.88;5053491;28;20028;-76
2022/12/08 09:43:37;;;;;;;8.07;5.72;;;;;;;0.83;100.00;152752.88;5054712;28;20549;-77
2022/12/08 09:46:06;;;;;;;11.35;5.70;;;;;;;0.89;100.00;152769.47;5024641;28;20049;-76
2022/12/08 09:48:36;;;;;;;7.75;6.03;;;;;;;0.80;100.00;152746.53;5050012;28;20064;-76
2022/12/08 09:51:03;;;;;;;9.25;5.78;;;;;;;0.73;100.00;152728.66;5065827;28;20033;-77
2022/12/08 09:53:44;;;;;;;7.10;5.68;;;;;;;0.69;100.00;152718.47;5041598;28;20561;-77
2022/12/08 09:56:15;;;;;;;7.43;6.00;;;;;;;0.67;100.00;152714.66;5041922;28;20033;-78
2022/12/08 09:58:55;;;;;;;8.60;5.88;;;;;;;0.67;100.00;152714.66;5028711;28;20036;-76
2022/12/08 10:01:25;;;;;;;7.50;6.00;;;;;;;0.71;100.00;152723.56;5045415;28;20068;-76
2022/12/08 10:03:51;;;;;;;7.57;5.80;;;;;;;0.73;100.00;152728.66;5048020;28;20810;-77
2022/12/08 10:06:48;;;;;;;8.23;6.03;;;;;;;0.70;100.00;152721.06;5039789;28;20025;-74
2022/12/08 10:09:32;;;;;;;7.05;5.55;;;;;;;0.62;100.00;152701.91;5012233;28;20506;-78
2022/12/08 10:12:24;;;;;;;6.55;4.63;;;;;;;0.65;100.00;152709.56;5027694;28;20029;-75
2022/12/08 10:14:56;;;;;;;9.35;5.15;;;;;;;0.83;100.00;152754.19;5049363;28;20036;-75
2022/12/08 10:17:34;;;;;;;6.38;5.43;;;;;;;0.84;100.00;152755.44;5015517;28;20469;-74
2022/12/08 10:20:15;;;;;;;8.23;6.15;;;;;;;0.89;100.00;152768.19;5048632;28;20123;-76
2022/12/08 10:22:41;;;;;;;8.63;6.63;;;;;;;0.95;100.00;152784.75;5052381;28;20040;-75
2022/12/08 10:25:15;;;;;;;8.38;6.28;;;;;;;1.04;100.00;152806.44;5056630;28;20040;-75
2022/12/08 10:27:41;;;;;;;8.75;6.53;;;;;;;1.11;100.00;152824.28;5042293;28;20060;-77
2022/12/08 10:30:16;;;;;;;7.60;5.97;;;;;;;1.10;100.00;152820.44;5046160;28;20640;-77
2022/12/08 10:32:45;;;;;;;6.35;5.75;;;;;;;1.05;100.00;152808.94;5038648;28;20036;-77
2022/12/08 10:35:13;;;;;;;9.55;6.32;;;;;;;1.04;100.00;152806.44;5039982;28;20394;-76
2022/12/08 10:37:39;;;;;;;9.25;6.30;;;;;;;1.13;100.00;152828.06;5035781;28;20036;-76
2022/12/08 10:40:16;;;;;;;7.68;6.65;;;;;;;1.16;100.00;152837.00;5033462;28;20041;-77
2022/12/08 10:42:56;;;;;;;7.13;6.10;;;;;;;1.30;100.00;152870.13;5055425;28;20040;-76
2022/12/08 10:45:32;;;;;;;7.45;6.00;;;;;;;1.58;100.00;152939.00;5039221;28;20040;-77
2022/12/08 10:48:12;;;;;;;7.15;6.40;;;;;;;1.59;100.00;152942.81;5058579;28;20520;-76
2022/12/08 10:50:42;;;;;;;6.90;5.38;;;;;;;1.54;100.00;152931.38;5027763;28;20098;-76
2022/12/08 10:53:08;;;;;;;9.60;5.75;;;;;;;1.62;100.00;152950.50;5056534;28;20103;-76
2022/12/08 10:55:46;;;;;;;6.75;4.93;;;;;;;1.61;100.00;152947.91;5045897;28;20366;-77
2022/12/08 10:58:30;;;;;;;5.63;4.72;;;;;;;1.48;100.00;152916.03;5036377;28;20045;-75
2022/12/08 11:01:00;;;;;;;6.10;5.43;;;;;;;1.52;100.00;152924.97;5053350;28;20037;-77
2022/12/08 11:03:32;;;;;;;7.30;5.75;;;;;;;1.45;100.00;152907.09;5050412;28;20124;-78
2022/12/08 11:06:00;;;;;;;5.80;5.30;;;;;;;1.45;100.00;152908.41;5033560;28;20044;-76
2022/12/08 11:08:28;;;;;;;6.82;4.53;;;;;;;1.36;100.00;152886.72;5022161;28;20108;-77
2022/12/08 11:10:53;;;;;;;5.20;4.18;;;;;;;1.31;100.00;152873.97;5043503;28;20037;-77
2022/12/08 11:13:25;;;;;;;4.63;4.00;;;;;;;1.31;100.00;152872.72;5047460;28;20509;-77
2022/12/08 11:15:53;;;;;;;4.53;3.40;;;;;;;1.29;100.00;152867.63;5023796;28;20063;-76
2022/12/08 11:18:38;;;;;;;5.72;3.92;;;;;;;1.34;100.00;152880.38;5056819;28;20037;-76
2022/12/08 11:21:16;;;;;;;4.47;3.20;;;;;;;1.32;100.00;152876.53;5075317;28;20059;-76
2022/12/08 11:23:49;;;;;;;3.92;3.25;;;;;;;1.22;100.00;152849.75;5026219;28;20041;-77
2022/12/08 11:26:46;;;;;;;3.33;2.90;;;;;;;1.12;100.00;152826.81;5048189;28;20033;-76
2022/12/08 11:29:12;;;;;;;4.95;3.25;;;;;;;1.12;100.00;152826.81;5051025;28;20509;-76
2022/12/08 11:31:45;;;;;;;4.10;3.00;;;;;;;1.07;100.00;152814.03;5021113;28;20044;-75